createdAt,value
2023-02-02T00:01:09.202Z,4.25
2023-02-02T00:03:37.831Z,3.45
2023-02-02T00:06:06.365Z,3.53
2023-02-02T00:08:36.069Z,3.50
2023-02-02T00:11:05.932Z,3.75
2023-02-02T00:13:34.229Z,4.10
2023-02-02T00:16:17.248Z,2.80
2023-02-02T00:18:45.385Z,3.00
2023-02-02T00:21:13.455Z,4.28
2023-02-02T00:23:41.600Z,2.72
2023-02-02T00:26:11.455Z,2.92
2023-02-02T00:28:39.676Z,2.83
2023-02-02T00:31:08.109Z,3.20
2023-02-02T00:33:36.645Z,3.25
2023-02-02T00:36:05.225Z,2.85
2023-02-02T00:38:34.653Z,3.33
2023-02-02T00:41:02.816Z,2.88
2023-02-02T00:43:32.581Z,3.33
2023-02-02T00:45:59.821Z,3.00
2023-02-02T00:48:28.088Z,3.00
2023-02-02T00:50:56.285Z,3.20
2023-02-02T00:53:24.595Z,2.80
2023-02-02T00:55:52.751Z,5.22
2023-02-02T00:58:21.905Z,5.90
2023-02-02T01:00:51.681Z,3.55
2023-02-02T01:03:20.042Z,4.78
2023-02-02T01:05:50.281Z,5.38
2023-02-02T01:08:18.844Z,4.80
2023-02-02T01:10:47.085Z,3.90
2023-02-02T01:13:15.686Z,3.05
2023-02-02T01:15:44.214Z,3.25
2023-02-02T01:18:13.778Z,3.55
2023-02-02T01:20:45.007Z,3.30
2023-02-02T01:23:13.259Z,2.88
2023-02-02T01:25:41.555Z,3.40
2023-02-02T01:28:09.831Z,3.25
2023-02-02T01:30:37.941Z,2.90
2023-02-02T01:33:06.115Z,2.80
2023-02-02T01:35:36.362Z,3.42
2023-02-02T01:38:04.520Z,2.72
2023-02-02T01:40:33.365Z,3.40
2023-02-02T01:43:01.900Z,3.28
2023-02-02T01:45:30.274Z,2.67
2023-02-02T01:48:00.158Z,2.90
2023-02-02T01:50:30.634Z,2.70
2023-02-02T01:53:01.003Z,2.97
2023-02-02T01:55:30.639Z,2.60
2023-02-02T01:58:01.418Z,2.60
2023-02-02T02:00:29.614Z,2.63
2023-02-02T02:02:59.729Z,3.00
2023-02-02T02:05:29.997Z,2.90
2023-02-02T02:08:03.888Z,2.42
2023-02-02T02:10:35.230Z,2.90
2023-02-02T02:13:03.457Z,2.92
2023-02-02T02:15:55.861Z,2.50
2023-02-02T02:18:28.261Z,3.05
2023-02-02T02:21:37.471Z,2.90
2023-02-02T02:24:52.452Z,3.65
2023-02-02T02:27:38.373Z,2.63
2023-02-02T02:30:24.335Z,3.10
2023-02-02T02:32:57.126Z,2.30
2023-02-02T02:35:30.438Z,2.05
2023-02-02T02:38:00.843Z,2.33
2023-02-02T02:40:32.227Z,1.83
2023-02-02T02:43:02.205Z,2.50
2023-02-02T02:45:30.858Z,2.78
2023-02-02T02:48:01.341Z,2.50
2023-02-02T02:50:29.488Z,2.28
2023-02-02T02:53:00.668Z,2.20
2023-02-02T02:55:33.930Z,1.75
2023-02-02T02:58:06.062Z,1.95
2023-02-02T03:00:39.027Z,1.75
2023-02-02T03:03:15.425Z,1.63
2023-02-02T03:05:50.655Z,1.70
2023-02-02T03:08:21.793Z,1.48
2023-02-02T03:10:50.236Z,1.92
2023-02-02T03:13:18.968Z,1.67
2023-02-02T03:15:50.437Z,1.55
2023-02-02T03:18:21.581Z,1.30
2023-02-02T03:20:49.832Z,1.55
2023-02-02T03:23:17.935Z,1.83
2023-02-02T03:25:46.377Z,1.90
2023-02-02T03:28:15.568Z,1.52
2023-02-02T03:30:44.547Z,1.45
2023-02-02T03:33:13.254Z,1.65
2023-02-02T03:35:42.995Z,1.80
2023-02-02T03:38:12.743Z,1.70
2023-02-02T03:40:41.790Z,2.10
2023-02-02T03:43:10.326Z,1.80
2023-02-02T03:45:40.804Z,1.60
2023-02-02T03:48:09.504Z,1.27
2023-02-02T03:50:38.633Z,1.50
2023-02-02T03:53:08.607Z,1.20
2023-02-02T03:55:39.068Z,1.63
2023-02-02T03:58:07.734Z,1.27
2023-02-02T04:00:36.344Z,1.60
2023-02-02T04:03:05.287Z,1.63
2023-02-02T04:05:33.654Z,1.50
2023-02-02T04:08:01.833Z,1.52
2023-02-02T04:10:31.965Z,1.27
2023-02-02T04:13:00.594Z,1.83
2023-02-02T04:15:28.787Z,1.80
2023-02-02T04:17:57.219Z,1.65
2023-02-02T04:20:25.504Z,1.40
2023-02-02T04:22:55.212Z,1.55
2023-02-02T04:25:23.863Z,2.00
2023-02-02T04:27:53.569Z,1.40
2023-02-02T04:30:21.889Z,1.25
2023-02-02T04:32:50.003Z,1.50
2023-02-02T04:35:18.179Z,1.58
2023-02-02T04:37:46.471Z,1.65
2023-02-02T04:40:15.443Z,1.80
2023-02-02T04:42:45.458Z,1.88
2023-02-02T04:45:15.722Z,1.83
2023-02-02T04:47:43.908Z,2.20
2023-02-02T04:50:13.208Z,2.22
2023-02-02T04:52:41.373Z,1.88
2023-02-02T04:55:10.013Z,2.25
2023-02-02T04:57:38.658Z,2.30
2023-02-02T05:00:07.239Z,1.80
2023-02-02T05:02:38.587Z,2.50
2023-02-02T05:05:07.830Z,2.30
2023-02-02T05:07:35.963Z,2.30
2023-02-02T05:10:04.365Z,1.55
2023-02-02T05:12:32.693Z,1.80
2023-02-02T05:15:02.325Z,1.80
2023-02-02T05:17:31.615Z,1.65
2023-02-02T05:20:01.761Z,1.75
2023-02-02T05:22:29.932Z,1.73
2023-02-02T05:24:58.372Z,1.58
2023-02-02T05:27:26.453Z,1.95
2023-02-02T05:29:54.639Z,1.70
2023-02-02T05:32:22.838Z,1.45
2023-02-02T05:34:50.998Z,2.13
2023-02-02T05:37:20.534Z,2.13
2023-02-02T05:39:49.960Z,1.98
2023-02-02T05:42:18.235Z,2.20
2023-02-02T05:44:46.473Z,1.92
2023-02-02T05:47:14.746Z,2.78
2023-02-02T05:49:43.979Z,4.55
2023-02-02T05:52:17.785Z,3.38
2023-02-02T05:54:47.414Z,2.88
2023-02-02T05:57:15.728Z,6.07
2023-02-02T05:59:44.031Z,4.28
2023-02-02T06:02:12.206Z,3.80
2023-02-02T06:04:40.700Z,4.00
2023-02-02T06:07:08.973Z,4.57
2023-02-02T06:09:37.687Z,4.53
2023-02-02T06:12:07.596Z,5.38
2023-02-02T06:14:35.706Z,5.25
2023-02-02T06:17:04.054Z,4.55
2023-02-02T06:19:32.169Z,4.95
2023-02-02T06:22:00.418Z,4.72
2023-02-02T06:24:29.040Z,7.07
2023-02-02T06:26:57.649Z,5.25
2023-02-02T06:29:27.209Z,4.55
2023-02-02T06:31:55.695Z,4.72
2023-02-02T06:34:23.945Z,4.85
2023-02-02T06:36:52.627Z,3.22
2023-02-02T06:39:21.285Z,2.90
2023-02-02T06:41:52.075Z,4.85
2023-02-02T06:44:21.114Z,4.68
2023-02-02T06:46:50.616Z,3.70
2023-02-02T06:49:19.013Z,3.45
2023-02-02T06:51:48.095Z,2.70
2023-02-02T06:54:16.296Z,2.95
2023-02-02T06:56:44.495Z,2.60
2023-02-02T06:59:12.761Z,2.83
2023-02-02T07:01:41.213Z,2.95
2023-02-02T07:04:10.773Z,2.35
2023-02-02T07:06:40.416Z,3.40
2023-02-02T07:09:08.686Z,2.78
2023-02-02T07:11:37.887Z,2.90
2023-02-02T07:14:08.479Z,3.47
2023-02-02T07:16:36.747Z,4.70
2023-02-02T07:19:05.382Z,3.70
2023-02-02T07:21:36.651Z,4.50
2023-02-02T07:24:05.614Z,3.42
2023-02-02T07:26:36.292Z,3.00
2023-02-02T07:29:05.481Z,3.83
2023-02-02T07:31:36.624Z,3.10
2023-02-02T07:34:05.751Z,2.90
2023-02-02T07:36:36.394Z,3.10
2023-02-02T07:39:05.439Z,2.47
2023-02-02T07:41:35.417Z,2.70
2023-02-02T07:44:03.998Z,3.25
2023-02-02T07:46:32.787Z,3.65
2023-02-02T07:49:01.035Z,3.25
2023-02-02T07:51:31.990Z,2.55
2023-02-02T07:54:02.465Z,2.95
2023-02-02T07:56:30.870Z,4.10
2023-02-02T07:58:59.065Z,2.05
2023-02-02T08:01:28.574Z,4.07
2023-02-02T08:03:59.068Z,2.70
2023-02-02T08:06:29.923Z,3.58
2023-02-02T08:08:58.419Z,2.58
2023-02-02T08:11:29.083Z,2.67
2023-02-02T08:13:58.135Z,3.03
2023-02-02T08:16:27.218Z,6.25
2023-02-02T08:18:55.510Z,6.03
2023-02-02T08:21:24.235Z,4.75
2023-02-02T08:23:57.589Z,3.53
2023-02-02T08:26:26.494Z,3.60
2023-02-02T08:28:57.076Z,4.50
2023-02-02T08:31:26.983Z,3.50
2023-02-02T08:33:59.220Z,2.30
2023-02-02T08:36:28.355Z,2.20
2023-02-02T08:38:56.691Z,2.80
2023-02-02T08:41:25.362Z,3.30
2023-02-02T08:43:53.711Z,2.08
2023-02-02T08:46:24.296Z,3.72
2023-02-02T08:48:52.483Z,3.92
2023-02-02T08:51:21.126Z,4.43
2023-02-02T08:53:49.511Z,3.72
2023-02-02T08:56:18.856Z,3.40
2023-02-02T08:58:47.880Z,4.20
2023-02-02T09:01:17.775Z,4.50
2023-02-02T09:03:47.620Z,4.95
2023-02-02T09:06:16.888Z,4.20
2023-02-02T09:08:45.890Z,4.25
2023-02-02T09:11:15.926Z,3.92
2023-02-02T09:13:45.818Z,3.53
2023-02-02T09:16:14.572Z,3.35
2023-02-02T09:18:48.856Z,5.03
2023-02-02T09:21:18.939Z,2.78
2023-02-02T09:23:47.818Z,5.10
2023-02-02T09:26:17.505Z,3.83
2023-02-02T09:28:46.554Z,2.70
2023-02-02T09:31:15.067Z,4.13
2023-02-02T09:33:43.624Z,2.50
2023-02-02T09:36:14.528Z,2.90
2023-02-02T09:38:44.115Z,2.28
2023-02-02T09:41:29.086Z,2.00
2023-02-02T09:44:01.832Z,2.60
2023-02-02T09:46:33.193Z,2.65
2023-02-02T09:49:06.781Z,2.42
2023-02-02T09:51:39.251Z,2.53
2023-02-02T09:54:13.424Z,3.00
2023-02-02T09:56:43.333Z,2.53
2023-02-02T09:59:20.545Z,3.28
2023-02-02T10:01:51.555Z,2.10
2023-02-02T10:04:23.502Z,2.30
2023-02-02T10:06:54.016Z,2.60
2023-02-02T10:09:29.324Z,3.30
2023-02-02T10:12:00.114Z,4.47
2023-02-02T10:14:31.066Z,3.47
2023-02-02T10:17:01.900Z,3.90
2023-02-02T10:19:30.920Z,3.58
2023-02-02T10:22:06.619Z,3.38
2023-02-02T10:24:35.949Z,2.88
2023-02-02T10:27:07.089Z,3.30
2023-02-02T10:29:48.593Z,3.38
2023-02-02T10:32:23.791Z,3.03
2023-02-02T10:35:13.056Z,3.30
2023-02-02T10:37:46.481Z,3.55
2023-02-02T10:40:28.631Z,3.65
2023-02-02T10:43:37.369Z,3.05
2023-02-02T10:46:12.015Z,1.92
2023-02-02T10:48:43.176Z,3.55
2023-02-02T10:51:14.458Z,2.53
2023-02-02T10:53:46.009Z,2.90
2023-02-02T10:56:14.714Z,2.60
2023-02-02T10:58:49.270Z,2.80
2023-02-02T11:01:22.960Z,3.40
2023-02-02T11:04:27.820Z,4.90
2023-02-02T11:06:55.942Z,2.42
2023-02-02T11:09:28.795Z,3.08
2023-02-02T11:12:02.684Z,3.83
2023-02-02T11:14:45.196Z,2.75
2023-02-02T11:17:22.166Z,3.25
2023-02-02T11:22:33.242Z,2.17
2023-02-02T11:25:06.380Z,2.55
2023-02-02T11:27:42.275Z,2.50
2023-02-02T11:30:24.119Z,2.60
2023-02-02T11:32:56.545Z,3.40
2023-02-02T11:35:26.854Z,2.75
2023-02-02T11:38:08.659Z,3.80
2023-02-02T11:40:46.019Z,2.80
2023-02-02T11:43:20.880Z,3.80
2023-02-02T11:46:01.563Z,3.65
2023-02-02T11:48:36.175Z,7.55
2023-02-02T11:51:10.052Z,3.42
2023-02-02T11:53:48.194Z,4.45
2023-02-02T11:56:31.736Z,5.07
2023-02-02T11:59:08.315Z,3.38
2023-02-02T12:01:43.452Z,3.75
2023-02-02T12:04:29.566Z,2.73
2023-02-02T12:07:03.840Z,2.20
2023-02-02T12:09:35.804Z,2.40
2023-02-02T12:12:17.923Z,2.45
2023-02-02T12:14:55.270Z,1.90
2023-02-02T12:17:36.220Z,1.77
2023-02-02T12:20:16.861Z,2.28
2023-02-02T12:23:02.582Z,4.10
2023-02-02T12:28:06.596Z,3.00
2023-02-02T12:30:39.922Z,3.55
2023-02-02T12:33:18.222Z,4.43
2023-02-02T12:35:50.633Z,5.40
2023-02-02T12:38:22.344Z,4.10
2023-02-02T12:41:16.676Z,4.03
2023-02-02T12:43:48.782Z,3.38
2023-02-02T12:46:26.854Z,3.22
2023-02-02T12:49:12.421Z,3.97
2023-02-02T12:51:47.008Z,4.63
2023-02-02T12:54:35.184Z,3.00
2023-02-02T12:57:16.227Z,3.17
2023-02-02T12:59:59.756Z,3.35
2023-02-02T13:02:32.780Z,2.58
2023-02-02T13:05:09.252Z,2.30
2023-02-02T13:07:40.684Z,2.90
2023-02-02T13:10:12.995Z,2.97
2023-02-02T13:12:44.439Z,2.17
2023-02-02T13:15:14.709Z,2.05
2023-02-02T13:17:45.407Z,2.70
2023-02-02T13:20:19.664Z,3.08
2023-02-02T13:22:51.248Z,3.72
2023-02-02T13:25:21.503Z,3.60
2023-02-02T13:27:50.140Z,3.28
2023-02-02T13:30:24.809Z,3.90
2023-02-02T13:32:56.389Z,3.25
2023-02-02T13:35:27.009Z,4.22
2023-02-02T13:37:57.539Z,4.53
2023-02-02T13:40:28.195Z,3.55
2023-02-02T13:43:02.823Z,2.47
2023-02-02T13:45:43.347Z,3.05
2023-02-02T13:48:27.034Z,3.00
2023-02-02T13:51:02.810Z,3.53
2023-02-02T13:53:43.096Z,2.60
2023-02-02T13:56:23.648Z,2.80
2023-02-02T13:58:58.736Z,3.42
2023-02-02T14:01:28.036Z,4.07
2023-02-02T14:03:58.646Z,3.90
2023-02-02T14:06:28.196Z,2.70
2023-02-02T14:08:57.216Z,2.95
2023-02-02T14:11:28.331Z,4.35
2023-02-02T14:14:15.551Z,2.95
2023-02-02T14:16:51.327Z,3.53
2023-02-02T14:19:42.361Z,3.90
2023-02-02T14:22:21.771Z,3.25
2023-02-02T14:24:50.864Z,4.00
2023-02-02T14:27:38.191Z,3.80
2023-02-02T14:30:17.644Z,3.70
2023-02-02T14:32:46.049Z,3.40
2023-02-02T14:35:32.631Z,2.53
2023-02-02T14:38:08.547Z,2.85
2023-02-02T14:40:48.829Z,3.28
2023-02-02T14:43:40.493Z,3.20
2023-02-02T14:46:24.225Z,3.17
2023-02-02T14:49:08.761Z,3.42
2023-02-02T14:51:47.319Z,4.30
2023-02-02T14:54:21.475Z,4.35
2023-02-02T14:56:51.035Z,4.25
2023-02-02T14:59:23.937Z,3.85
2023-02-02T15:01:58.043Z,3.20
2023-02-02T15:04:27.218Z,3.58
2023-02-02T15:06:56.087Z,3.38
2023-02-02T15:09:36.793Z,3.65
2023-02-02T15:12:26.073Z,2.80
2023-02-02T15:14:58.007Z,3.70
2023-02-02T15:17:30.166Z,3.20
2023-02-02T15:20:03.824Z,2.90
2023-02-02T15:22:33.932Z,2.30
2023-02-02T15:25:07.942Z,2.42
2023-02-02T15:27:48.001Z,2.28
2023-02-02T15:30:24.065Z,2.35
2023-02-02T15:32:53.230Z,4.10
2023-02-02T15:35:23.671Z,2.78
2023-02-02T15:37:55.049Z,3.28
2023-02-02T15:40:26.310Z,3.80
2023-02-02T15:42:58.873Z,3.65
2023-02-02T15:45:31.629Z,4.60
2023-02-02T15:48:01.750Z,4.07
2023-02-02T15:50:30.658Z,4.15
2023-02-02T15:52:59.014Z,4.40
2023-02-02T15:55:32.972Z,4.20
2023-02-02T15:58:04.444Z,3.20
2023-02-02T16:00:34.150Z,5.00
2023-02-02T16:03:03.967Z,3.50
2023-02-02T16:05:47.639Z,5.03
2023-02-02T16:08:19.534Z,6.60
2023-02-02T16:11:05.334Z,5.00
2023-02-02T16:13:34.454Z,4.60
2023-02-02T16:16:04.085Z,5.38
2023-02-02T16:18:32.691Z,4.90
2023-02-02T16:21:02.856Z,4.85
2023-02-02T16:23:34.311Z,5.50
2023-02-02T16:26:04.531Z,5.88
2023-02-02T16:28:35.857Z,6.32
2023-02-02T16:31:04.620Z,6.60
2023-02-02T16:33:37.374Z,5.72
2023-02-02T16:36:25.901Z,4.85
2023-02-02T16:38:56.046Z,4.20
2023-02-02T16:41:29.189Z,7.53
2023-02-02T16:44:23.472Z,7.45
2023-02-02T16:46:53.876Z,7.15
2023-02-02T16:49:24.178Z,7.35
2023-02-02T16:52:08.276Z,7.88
2023-02-02T16:54:37.124Z,6.57
2023-02-02T16:57:05.672Z,6.00
2023-02-02T16:59:37.684Z,3.92
2023-02-02T17:02:17.891Z,9.43
2023-02-02T17:04:48.705Z,9.02
2023-02-02T17:07:17.906Z,11.98
2023-02-02T17:09:48.004Z,8.75
2023-02-02T17:12:33.596Z,6.93
2023-02-02T17:15:25.063Z,7.25
2023-02-02T17:17:53.723Z,8.15
2023-02-02T17:20:22.589Z,8.13
2023-02-02T17:22:52.701Z,5.97
2023-02-02T17:25:23.757Z,8.68
2023-02-02T17:27:52.790Z,7.88
2023-02-02T17:30:23.013Z,8.90
2023-02-02T17:32:51.839Z,6.85
2023-02-02T17:35:22.706Z,9.88
2023-02-02T17:37:52.773Z,17.58
2023-02-02T17:40:22.068Z,9.35
2023-02-02T17:42:51.242Z,7.63
2023-02-02T17:45:20.260Z,7.20
2023-02-02T17:47:50.575Z,7.90
2023-02-02T17:50:19.482Z,7.43
2023-02-02T17:52:48.713Z,6.45
2023-02-02T17:55:20.163Z,6.30
2023-02-02T17:57:49.207Z,5.40
2023-02-02T18:00:18.932Z,9.07
2023-02-02T18:02:48.125Z,5.68
2023-02-02T18:05:19.673Z,8.57
2023-02-02T18:07:48.240Z,5.18
2023-02-02T18:10:19.330Z,5.53
2023-02-02T18:12:47.966Z,11.45
2023-02-02T18:15:16.563Z,7.68
2023-02-02T18:17:48.706Z,7.80
2023-02-02T18:20:19.168Z,9.27
2023-02-02T18:22:48.643Z,5.82
2023-02-02T18:25:17.323Z,8.20
2023-02-02T18:27:45.509Z,8.30
2023-02-02T18:30:15.015Z,5.32
2023-02-02T18:32:44.025Z,3.97
2023-02-02T18:35:13.239Z,4.45
2023-02-02T18:37:43.175Z,4.20
2023-02-02T18:40:12.501Z,4.88
2023-02-02T18:42:41.091Z,3.17
2023-02-02T18:45:09.935Z,5.40
2023-02-02T18:47:41.112Z,4.57
2023-02-02T18:50:10.703Z,4.10
2023-02-02T18:52:39.435Z,4.10
2023-02-02T18:55:10.781Z,3.78
2023-02-02T18:57:39.450Z,5.78
2023-02-02T19:00:08.971Z,8.00
2023-02-02T19:02:37.784Z,10.60
2023-02-02T19:05:39.192Z,5.65
2023-02-02T19:08:08.841Z,4.25
2023-02-02T19:10:39.593Z,3.90
2023-02-02T19:13:13.496Z,5.72
2023-02-02T19:15:42.478Z,4.38
2023-02-02T19:18:15.208Z,4.53
2023-02-02T19:20:44.053Z,4.28
2023-02-02T19:23:13.569Z,5.38
2023-02-02T19:25:46.400Z,4.25
2023-02-02T19:28:21.425Z,5.85
2023-02-02T19:30:52.385Z,4.40
2023-02-02T19:33:21.713Z,7.32
2023-02-02T19:35:53.150Z,6.03
2023-02-02T19:38:23.951Z,8.38
2023-02-02T19:40:59.114Z,10.43
2023-02-02T19:43:29.621Z,9.50
2023-02-02T19:46:01.493Z,8.27
2023-02-02T19:48:34.712Z,9.85
2023-02-02T19:51:24.709Z,10.88
2023-02-02T19:53:54.611Z,4.47
2023-02-02T19:56:26.264Z,14.63
2023-02-02T19:58:55.635Z,10.80
2023-02-02T20:01:25.585Z,11.02
2023-02-02T20:03:55.324Z,11.82
2023-02-02T20:06:25.542Z,8.23
2023-02-02T20:08:56.942Z,10.82
2023-02-02T20:11:33.447Z,9.35
2023-02-02T20:14:21.760Z,5.90
2023-02-02T20:16:52.567Z,7.18
2023-02-02T20:19:25.779Z,5.95
2023-02-02T20:21:55.150Z,10.80
2023-02-02T20:24:25.186Z,10.77
2023-02-02T20:26:56.475Z,8.45
2023-02-02T20:29:27.361Z,10.18
2023-02-02T20:31:57.045Z,10.55
2023-02-02T20:34:27.529Z,8.63
2023-02-02T20:36:58.961Z,12.23
2023-02-02T20:39:29.737Z,12.65
2023-02-02T20:41:59.892Z,10.50
2023-02-02T20:44:28.991Z,11.07
2023-02-02T20:46:58.012Z,11.02
2023-02-02T20:49:26.905Z,11.25
2023-02-02T20:51:56.245Z,11.57
2023-02-02T20:54:25.433Z,11.23
2023-02-02T20:56:54.572Z,9.48
2023-02-02T20:59:24.329Z,12.13
2023-02-02T21:01:53.669Z,6.80
2023-02-02T21:04:23.474Z,9.88
2023-02-02T21:06:52.071Z,9.60
2023-02-02T21:09:20.610Z,15.27
2023-02-02T21:11:49.394Z,23.15
2023-02-02T21:14:17.906Z,17.98
2023-02-02T21:16:50.446Z,8.18
2023-02-02T21:19:20.053Z,21.67
2023-02-02T21:21:48.241Z,15.70
2023-02-02T21:24:17.548Z,8.40
2023-02-02T21:26:46.440Z,7.40
2023-02-02T21:29:16.127Z,7.63
2023-02-02T21:31:45.333Z,8.77
2023-02-02T21:34:15.802Z,8.70
2023-02-02T21:36:45.632Z,8.93
2023-02-02T21:39:17.260Z,10.35
2023-02-02T21:41:45.784Z,7.68
2023-02-02T21:44:15.311Z,8.18
2023-02-02T21:46:43.999Z,5.80
2023-02-02T21:49:19.780Z,7.97
2023-02-02T21:51:48.192Z,11.48
2023-02-02T21:54:20.814Z,9.32
2023-02-02T21:56:49.821Z,8.20
2023-02-02T21:59:19.685Z,6.07
2023-02-02T22:01:49.708Z,4.85
2023-02-02T22:04:23.960Z,5.57
2023-02-02T22:06:53.299Z,5.70
2023-02-02T22:09:23.485Z,5.47
2023-02-02T22:11:53.191Z,5.63
2023-02-02T22:14:23.655Z,4.50
2023-02-02T22:16:53.104Z,4.88
2023-02-02T22:19:36.815Z,4.75
2023-02-02T22:22:13.636Z,4.43
2023-02-02T22:24:42.511Z,4.85
2023-02-02T22:27:21.500Z,4.40
2023-02-02T22:29:50.390Z,5.30
2023-02-02T22:32:18.951Z,4.72
2023-02-02T22:34:49.818Z,4.63
2023-02-02T22:37:19.359Z,5.03
2023-02-02T22:39:47.906Z,4.68
2023-02-02T22:42:18.221Z,5.38
2023-02-02T22:44:46.806Z,5.13
2023-02-02T22:47:14.826Z,5.78
2023-02-02T22:49:43.371Z,5.22
2023-02-02T22:52:13.434Z,5.05
2023-02-02T22:54:41.701Z,5.25
2023-02-02T22:57:12.773Z,9.80
2023-02-02T22:59:41.492Z,8.55
2023-02-02T23:02:09.746Z,6.97
2023-02-02T23:04:37.993Z,7.95
2023-02-02T23:07:07.444Z,8.13
2023-02-02T23:09:37.390Z,8.02
2023-02-02T23:12:06.302Z,9.20
2023-02-02T23:14:34.553Z,6.35
2023-02-02T23:17:03.134Z,5.85
2023-02-02T23:19:31.658Z,5.75
2023-02-02T23:22:00.231Z,6.07
2023-02-02T23:24:28.715Z,6.80
2023-02-02T23:26:58.682Z,7.78
2023-02-02T23:29:26.762Z,9.30
2023-02-02T23:31:55.019Z,8.70
2023-02-02T23:34:23.438Z,8.05
2023-02-02T23:36:53.698Z,6.50
2023-02-02T23:39:22.309Z,6.28
2023-02-02T23:41:51.347Z,6.53
2023-02-02T23:44:21.866Z,5.18
2023-02-02T23:46:50.619Z,6.40
2023-02-02T23:49:19.269Z,6.65
2023-02-02T23:51:47.891Z,5.85
2023-02-02T23:54:16.435Z,8.00
2023-02-02T23:56:45.082Z,7.25
2023-02-02T23:59:13.795Z,7.75
